sensor_id;sensor_type;location;lat;lon;timestamp;pressure;altitude;pressure_sealevel;temperature;humidity
66273;BME280;58450;52.150;4.466;2022-10-20T00:01:14;101728.56;;;9.90;100.00
66273;BME280;58450;52.150;4.466;2022-10-20T00:03:44;101731.94;;;9.92;100.00
66273;BME280;58450;52.150;4.466;2022-10-20T00:06:14;101711.25;;;9.93;100.00
66273;BME280;58450;52.150;4.466;2022-10-20T00:08:44;101708.72;;;9.91;100.00
66273;BME280;58450;52.150;4.466;2022-10-20T00:11:13;101707.88;;;9.90;100.00
66273;BME280;58450;52.150;4.466;2022-10-20T00:13:45;101713.25;;;9.90;100.00
66273;BME280;58450;52.150;4.466;2022-10-20T00:16:13;101712.44;;;9.90;100.00
66273;BME280;58450;52.150;4.466;2022-10-20T00:18:41;101702.00;;;9.87;100.00
66273;BME280;58450;52.150;4.466;2022-10-20T00:21:12;101706.19;;;9.89;100.00
66273;BME280;58450;52.150;4.466;2022-10-20T00:23:41;101703.00;;;9.86;100.00
66273;BME280;58450;52.150;4.466;2022-10-20T00:26:11;101706.00;;;9.83;100.00
66273;BME280;58450;52.150;4.466;2022-10-20T00:28:39;101712.38;;;9.82;100.00
66273;BME280;58450;52.150;4.466;2022-10-20T00:31:09;101710.69;;;9.81;100.00
66273;BME280;58450;52.150;4.466;2022-10-20T00:33:37;101711.38;;;9.83;100.00
66273;BME280;58450;52.150;4.466;2022-10-20T00:36:06;101693.38;;;9.83;100.00
66273;BME280;58450;52.150;4.466;2022-10-20T00:38:36;101698.75;;;9.83;100.00
66273;BME280;58450;52.150;4.466;2022-10-20T00:41:03;101692.19;;;9.78;100.00
66273;BME280;58450;52.150;4.466;2022-10-20T00:43:43;101672.88;;;9.82;100.00
66273;BME280;58450;52.150;4.466;2022-10-20T00:46:16;101659.63;;;9.81;100.00
66273;BME280;58450;52.150;4.466;2022-10-20T00:48:48;101678.13;;;9.84;100.00
66273;BME280;58450;52.150;4.466;2022-10-20T00:51:20;101665.50;;;9.84;100.00
66273;BME280;58450;52.150;4.466;2022-10-20T00:53:52;101676.44;;;9.83;100.00
66273;BME280;58450;52.150;4.466;2022-10-20T00:56:24;101672.91;;;9.90;100.00
66273;BME280;58450;52.150;4.466;2022-10-20T00:58:52;101670.56;;;9.87;100.00
66273;BME280;58450;52.150;4.466;2022-10-20T01:01:21;101671.88;;;9.83;100.00
66273;BME280;58450;52.150;4.466;2022-10-20T01:03:50;101681.63;;;9.84;100.00
66273;BME280;58450;52.150;4.466;2022-10-20T01:06:20;101669.19;;;9.83;100.00
66273;BME280;58450;52.150;4.466;2022-10-20T01:08:49;101672.75;;;9.84;100.00
66273;BME280;58450;52.150;4.466;2022-10-20T01:11:25;101666.38;;;9.85;100.00
66273;BME280;58450;52.150;4.466;2022-10-20T01:14:14;101652.38;;;9.81;100.00
66273;BME280;58450;52.150;4.466;2022-10-20T01:16:58;101650.69;;;9.80;100.00
66273;BME280;58450;52.150;4.466;2022-10-20T01:19:57;101655.25;;;9.80;100.00
66273;BME280;58450;52.150;4.466;2022-10-20T01:22:57;101643.50;;;9.81;100.00
66273;BME280;58450;52.150;4.466;2022-10-20T01:25:48;101628.19;;;9.81;100.00
66273;BME280;58450;52.150;4.466;2022-10-20T01:28:35;101621.31;;;9.79;100.00
66273;BME280;58450;52.150;4.466;2022-10-20T01:31:14;101622.34;;;9.86;100.00
66273;BME280;58450;52.150;4.466;2022-10-20T01:33:55;101615.28;;;9.85;100.00
66273;BME280;58450;52.150;4.466;2022-10-20T01:36:33;101604.69;;;9.83;100.00
66273;BME280;58450;52.150;4.466;2022-10-20T01:39:07;101620.13;;;9.81;100.00
66273;BME280;58450;52.150;4.466;2022-10-20T01:41:42;101615.72;;;9.72;100.00
66273;BME280;58450;52.150;4.466;2022-10-20T01:44:18;101609.81;;;9.60;100.00
66273;BME280;58450;52.150;4.466;2022-10-20T01:46:48;101606.16;;;9.69;100.00
66273;BME280;58450;52.150;4.466;2022-10-20T01:49:17;101603.97;;;9.65;100.00
66273;BME280;58450;52.150;4.466;2022-10-20T01:51:45;101588.50;;;9.58;100.00
66273;BME280;58450;52.150;4.466;2022-10-20T01:54:20;101589.97;;;9.53;100.00
66273;BME280;58450;52.150;4.466;2022-10-20T01:56:59;101579.22;;;9.53;100.00
66273;BME280;58450;52.150;4.466;2022-10-20T01:59:57;101574.47;;;9.46;100.00
66273;BME280;58450;52.150;4.466;2022-10-20T02:02:53;101552.13;;;9.38;100.00
66273;BME280;58450;52.150;4.466;2022-10-20T02:05:45;101553.50;;;9.42;100.00
66273;BME280;58450;52.150;4.466;2022-10-20T02:08:35;101547.06;;;9.35;100.00
66273;BME280;58450;52.150;4.466;2022-10-20T02:11:13;101541.38;;;9.38;100.00
66273;BME280;58450;52.150;4.466;2022-10-20T02:13:48;101542.38;;;9.37;100.00
66273;BME280;58450;52.150;4.466;2022-10-20T02:16:23;101533.16;;;9.39;100.00
66273;BME280;58450;52.150;4.466;2022-10-20T02:18:55;101531.13;;;9.41;100.00
66273;BME280;58450;52.150;4.466;2022-10-20T02:21:25;101531.31;;;9.40;100.00
66273;BME280;58450;52.150;4.466;2022-10-20T02:23:53;101526.44;;;9.43;100.00
66273;BME280;58450;52.150;4.466;2022-10-20T02:26:25;101523.09;;;9.41;100.00
66273;BME280;58450;52.150;4.466;2022-10-20T02:28:56;101512.34;;;9.41;100.00
66273;BME280;58450;52.150;4.466;2022-10-20T02:31:28;101504.44;;;9.40;100.00
66273;BME280;58450;52.150;4.466;2022-10-20T02:33:56;101495.53;;;9.39;100.00
66273;BME280;58450;52.150;4.466;2022-10-20T02:36:26;101477.59;;;9.40;100.00
66273;BME280;58450;52.150;4.466;2022-10-20T02:38:55;101474.03;;;9.39;100.00
66273;BME280;58450;52.150;4.466;2022-10-20T02:41:22;101471.53;;;9.38;100.00
66273;BME280;58450;52.150;4.466;2022-10-20T02:43:51;101472.38;;;9.38;100.00
66273;BME280;58450;52.150;4.466;2022-10-20T02:46:19;101468.19;;;9.36;100.00
66273;BME280;58450;52.150;4.466;2022-10-20T02:48:47;101459.13;;;9.37;100.00
66273;BME280;58450;52.150;4.466;2022-10-20T02:51:15;101461.13;;;9.35;100.00
66273;BME280;58450;52.150;4.466;2022-10-20T02:53:43;101455.75;;;9.35;100.00
66273;BME280;58450;52.150;4.466;2022-10-20T02:56:11;101446.69;;;9.36;100.00
66273;BME280;58450;52.150;4.466;2022-10-20T02:58:39;101445.16;;;9.33;100.00
66273;BME280;58450;52.150;4.466;2022-10-20T03:01:06;101449.53;;;9.34;100.00
66273;BME280;58450;52.150;4.466;2022-10-20T03:03:34;101444.16;;;9.34;100.00
66273;BME280;58450;52.150;4.466;2022-10-20T03:06:08;101437.44;;;9.38;100.00
66273;BME280;58450;52.150;4.466;2022-10-20T03:08:37;101431.41;;;9.36;100.00
66273;BME280;58450;52.150;4.466;2022-10-20T03:11:05;101430.06;;;9.40;100.00
66273;BME280;58450;52.150;4.466;2022-10-20T03:13:33;101425.69;;;9.39;100.00
66273;BME280;58450;52.150;4.466;2022-10-20T03:16:01;101425.38;;;9.42;100.00
66273;BME280;58450;52.150;4.466;2022-10-20T03:18:28;101420.84;;;9.43;100.00
66273;BME280;58450;52.150;4.466;2022-10-20T03:20:55;101426.22;;;9.43;100.00
66273;BME280;58450;52.150;4.466;2022-10-20T03:23:24;101412.59;;;9.44;100.00
66273;BME280;58450;52.150;4.466;2022-10-20T03:25:52;101409.44;;;9.41;100.00
66273;BME280;58450;52.150;4.466;2022-10-20T03:28:19;101400.38;;;9.42;100.00
66273;BME280;58450;52.150;4.466;2022-10-20T03:30:47;101405.56;;;9.43;100.00
66273;BME280;58450;52.150;4.466;2022-10-20T03:33:14;101408.41;;;9.42;100.00
66273;BME280;58450;52.150;4.466;2022-10-20T03:35:42;101390.28;;;9.44;100.00
66273;BME280;58450;52.150;4.466;2022-10-20T03:38:09;101391.97;;;9.45;100.00
66273;BME280;58450;52.150;4.466;2022-10-20T03:40:38;101396.66;;;9.43;100.00
66273;BME280;58450;52.150;4.466;2022-10-20T03:43:06;101391.13;;;9.44;100.00
66273;BME280;58450;52.150;4.466;2022-10-20T03:45:33;101389.97;;;9.47;100.00
66273;BME280;58450;52.150;4.466;2022-10-20T03:48:01;101393.47;;;9.48;100.00
66273;BME280;58450;52.150;4.466;2022-10-20T03:50:28;101399.69;;;9.48;100.00
66273;BME280;58450;52.150;4.466;2022-10-20T03:52:55;101387.09;;;9.49;100.00
66273;BME280;58450;52.150;4.466;2022-10-20T03:55:23;101383.59;;;9.48;100.00
66273;BME280;58450;52.150;4.466;2022-10-20T03:57:52;101376.69;;;9.45;100.00
66273;BME280;58450;52.150;4.466;2022-10-20T04:00:19;101383.38;;;9.41;100.00
66273;BME280;58450;52.150;4.466;2022-10-20T04:02:47;101382.38;;;9.42;100.00
66273;BME280;58450;52.150;4.466;2022-10-20T04:05:16;101377.69;;;9.44;100.00
66273;BME280;58450;52.150;4.466;2022-10-20T04:07:45;101382.72;;;9.39;100.00
66273;BME280;58450;52.150;4.466;2022-10-20T04:10:14;101401.38;;;9.41;100.00
66273;BME280;58450;52.150;4.466;2022-10-20T04:12:43;101411.94;;;9.42;100.00
66273;BME280;58450;52.150;4.466;2022-10-20T04:15:12;101395.47;;;9.37;100.00
66273;BME280;58450;52.150;4.466;2022-10-20T04:17:39;101393.47;;;9.39;100.00
66273;BME280;58450;52.150;4.466;2022-10-20T04:20:07;101388.94;;;9.40;100.00
66273;BME280;58450;52.150;4.466;2022-10-20T04:22:35;101374.50;;;9.41;100.00
66273;BME280;58450;52.150;4.466;2022-10-20T04:25:03;101381.03;;;9.38;100.00
66273;BME280;58450;52.150;4.466;2022-10-20T04:27:31;101386.41;;;9.38;100.00
66273;BME280;58450;52.150;4.466;2022-10-20T04:29:59;101381.38;;;9.35;100.00
66273;BME280;58450;52.150;4.466;2022-10-20T04:32:28;101373.31;;;9.35;100.00
66273;BME280;58450;52.150;4.466;2022-10-20T04:34:55;101359.88;;;9.35;100.00
66273;BME280;58450;52.150;4.466;2022-10-20T04:37:23;101346.63;;;9.34;100.00
66273;BME280;58450;52.150;4.466;2022-10-20T04:39:50;101351.00;;;9.35;100.00
66273;BME280;58450;52.150;4.466;2022-10-20T04:42:18;101343.75;;;9.35;100.00
66273;BME280;58450;52.150;4.466;2022-10-20T04:44:46;101332.69;;;9.38;100.00
66273;BME280;58450;52.150;4.466;2022-10-20T04:47:13;101326.81;;;9.43;100.00
66273;BME280;58450;52.150;4.466;2022-10-20T04:49:42;101329.84;;;9.48;100.00
66273;BME280;58450;52.150;4.466;2022-10-20T04:52:10;101335.38;;;9.46;100.00
66273;BME280;58450;52.150;4.466;2022-10-20T04:54:37;101342.94;;;9.51;100.00
66273;BME280;58450;52.150;4.466;2022-10-20T04:57:04;101341.09;;;9.52;100.00
66273;BME280;58450;52.150;4.466;2022-10-20T04:59:32;101342.75;;;9.53;100.00
66273;BME280;58450;52.150;4.466;2022-10-20T05:01:59;101361.56;;;9.53;100.00
66273;BME280;58450;52.150;4.466;2022-10-20T05:04:27;101356.38;;;9.51;100.00
66273;BME280;58450;52.150;4.466;2022-10-20T05:06:56;101344.78;;;9.51;100.00
66273;BME280;58450;52.150;4.466;2022-10-20T05:09:23;101344.78;;;9.51;100.00
66273;BME280;58450;52.150;4.466;2022-10-20T05:11:50;101318.91;;;9.50;100.00
66273;BME280;58450;52.150;4.466;2022-10-20T05:14:18;101291.91;;;9.51;100.00
66273;BME280;58450;52.150;4.466;2022-10-20T05:16:46;101284.00;;;9.50;100.00
66273;BME280;58450;52.150;4.466;2022-10-20T05:19:13;101292.06;;;9.50;100.00
66273;BME280;58450;52.150;4.466;2022-10-20T05:21:41;101298.44;;;9.49;100.00
66273;BME280;58450;52.150;4.466;2022-10-20T05:24:12;101295.06;;;9.55;100.00
66273;BME280;58450;52.150;4.466;2022-10-20T05:26:41;101281.31;;;9.50;100.00
66273;BME280;58450;52.150;4.466;2022-10-20T05:29:10;101289.22;;;9.51;100.00
66273;BME280;58450;52.150;4.466;2022-10-20T05:31:39;101287.19;;;9.53;100.00
66273;BME280;58450;52.150;4.466;2022-10-20T05:34:09;101279.63;;;9.49;100.00
66273;BME280;58450;52.150;4.466;2022-10-20T05:36:37;101277.47;;;9.52;100.00
66273;BME280;58450;52.150;4.466;2022-10-20T05:39:05;101285.66;;;9.51;100.00
66273;BME280;58450;52.150;4.466;2022-10-20T05:41:34;101277.28;;;9.54;100.00
66273;BME280;58450;52.150;4.466;2022-10-20T05:44:03;101278.63;;;9.58;100.00
66273;BME280;58450;52.150;4.466;2022-10-20T05:46:36;101266.19;;;9.57;100.00
66273;BME280;58450;52.150;4.466;2022-10-20T05:49:06;101267.03;;;9.57;100.00
66273;BME280;58450;52.150;4.466;2022-10-20T05:51:38;101254.09;;;9.53;100.00
66273;BME280;58450;52.150;4.466;2022-10-20T05:54:06;101237.81;;;9.54;100.00
66273;BME280;58450;52.150;4.466;2022-10-20T05:56:37;101240.00;;;9.51;100.00
66273;BME280;58450;52.150;4.466;2022-10-20T05:59:05;101244.34;;;9.52;100.00
66273;BME280;58450;52.150;4.466;2022-10-20T06:01:33;101238.50;;;9.56;100.00
66273;BME280;58450;52.150;4.466;2022-10-20T06:04:13;101250.06;;;9.57;100.00
66273;BME280;58450;52.150;4.466;2022-10-20T06:06:41;101255.63;;;9.55;100.00
66273;BME280;58450;52.150;4.466;2022-10-20T06:09:10;101266.03;;;9.58;100.00
66273;BME280;58450;52.150;4.466;2022-10-20T06:11:39;101257.78;;;9.60;100.00
66273;BME280;58450;52.150;4.466;2022-10-20T06:14:08;101253.41;;;9.59;100.00
66273;BME280;58450;52.150;4.466;2022-10-20T06:16:36;101242.19;;;9.55;100.00
66273;BME280;58450;52.150;4.466;2022-10-20T06:19:04;101249.41;;;9.55;100.00
66273;BME280;58450;52.150;4.466;2022-10-20T06:21:34;101260.81;;;9.57;100.00
66273;BME280;58450;52.150;4.466;2022-10-20T06:24:04;101251.75;;;9.58;100.00
66273;BME280;58450;52.150;4.466;2022-10-20T06:26:33;101253.59;;;9.57;100.00
66273;BME280;58450;52.150;4.466;2022-10-20T06:29:05;101249.91;;;9.58;100.00
66273;BME280;58450;52.150;4.466;2022-10-20T06:31:35;101237.50;;;9.57;100.00
66273;BME280;58450;52.150;4.466;2022-10-20T06:34:05;101238.97;;;9.60;100.00
66273;BME280;58450;52.150;4.466;2022-10-20T06:36:35;101242.19;;;9.64;100.00
66273;BME280;58450;52.150;4.466;2022-10-20T06:39:05;101243.66;;;9.66;100.00
66273;BME280;58450;52.150;4.466;2022-10-20T06:41:33;101263.00;;;9.70;100.00
66273;BME280;58450;52.150;4.466;2022-10-20T06:44:03;101274.38;;;9.72;100.00
66273;BME280;58450;52.150;4.466;2022-10-20T06:46:33;101280.94;;;9.69;100.00
66273;BME280;58450;52.150;4.466;2022-10-20T06:49:03;101274.91;;;9.75;100.00
66273;BME280;58450;52.150;4.466;2022-10-20T06:51:33;101269.34;;;9.77;100.00
66273;BME280;58450;52.150;4.466;2022-10-20T06:54:01;101253.72;;;9.81;100.00
66273;BME280;58450;52.150;4.466;2022-10-20T06:56:31;101245.97;;;9.86;100.00
66273;BME280;58450;52.150;4.466;2022-10-20T06:59:01;101239.25;;;9.90;100.00
66273;BME280;58450;52.150;4.466;2022-10-20T07:01:32;101245.09;;;9.94;100.00
66273;BME280;58450;52.150;4.466;2022-10-20T07:04:02;101245.97;;;9.94;100.00
66273;BME280;58450;52.150;4.466;2022-10-20T07:06:33;101235.34;;;9.93;100.00
66273;BME280;58450;52.150;4.466;2022-10-20T07:09:04;101233.66;;;10.00;100.00
66273;BME280;58450;52.150;4.466;2022-10-20T07:11:33;101232.28;;;10.04;100.00
66273;BME280;58450;52.150;4.466;2022-10-20T07:14:02;101229.25;;;10.07;100.00
66273;BME280;58450;52.150;4.466;2022-10-20T07:16:32;101219.19;;;10.01;100.00
66273;BME280;58450;52.150;4.466;2022-10-20T07:19:02;101222.41;;;10.04;100.00
66273;BME280;58450;52.150;4.466;2022-10-20T07:21:30;101228.25;;;10.08;100.00
66273;BME280;58450;52.150;4.466;2022-10-20T07:23:59;101235.81;;;10.13;100.00
66273;BME280;58450;52.150;4.466;2022-10-20T07:26:29;101225.00;;;10.21;100.00
66273;BME280;58450;52.150;4.466;2022-10-20T07:28:59;101222.44;;;10.28;100.00
66273;BME280;58450;52.150;4.466;2022-10-20T07:31:30;101211.84;;;10.26;100.00
66273;BME280;58450;52.150;4.466;2022-10-20T07:34:02;101215.19;;;10.28;100.00
66273;BME280;58450;52.150;4.466;2022-10-20T07:36:32;101219.22;;;10.32;100.00
66273;BME280;58450;52.150;4.466;2022-10-20T07:39:02;101214.03;;;10.39;100.00
66273;BME280;58450;52.150;4.466;2022-10-20T07:41:32;101220.88;;;10.42;100.00
66273;BME280;58450;52.150;4.466;2022-10-20T07:44:02;101215.00;;;10.38;100.00
66273;BME280;58450;52.150;4.466;2022-10-20T07:46:31;101210.63;;;10.45;100.00
66273;BME280;58450;52.150;4.466;2022-10-20T07:48:59;101199.97;;;10.52;100.00
66273;BME280;58450;52.150;4.466;2022-10-20T07:51:28;101198.13;;;10.53;100.00
66273;BME280;58450;52.150;4.466;2022-10-20T07:54:00;101209.56;;;10.55;100.00
66273;BME280;58450;52.150;4.466;2022-10-20T07:56:31;101213.38;;;10.60;100.00
66273;BME280;58450;52.150;4.466;2022-10-20T07:59:01;101223.94;;;10.62;100.00
66273;BME280;58450;52.150;4.466;2022-10-20T08:01:28;101222.88;;;10.71;100.00
66273;BME280;58450;52.150;4.466;2022-10-20T08:03:57;101219.06;;;10.66;100.00
66273;BME280;58450;52.150;4.466;2022-10-20T08:06:25;101217.34;;;10.73;100.00
66273;BME280;58450;52.150;4.466;2022-10-20T08:08:52;101224.69;;;10.79;100.00
66273;BME280;58450;52.150;4.466;2022-10-20T08:11:20;101222.97;;;10.86;100.00
66273;BME280;58450;52.150;4.466;2022-10-20T08:13:48;101217.22;;;10.89;100.00
66273;BME280;58450;52.150;4.466;2022-10-20T08:16:16;101219.06;;;10.89;100.00
66273;BME280;58450;52.150;4.466;2022-10-20T08:18:44;101223.28;;;10.91;100.00
66273;BME280;58450;52.150;4.466;2022-10-20T08:21:14;101224.69;;;11.02;100.00
66273;BME280;58450;52.150;4.466;2022-10-20T08:23:44;101210.13;;;11.12;100.00
66273;BME280;58450;52.150;4.466;2022-10-20T08:26:17;101204.38;;;11.15;100.00
66273;BME280;58450;52.150;4.466;2022-10-20T08:28:45;101209.56;;;11.16;100.00
66273;BME280;58450;52.150;4.466;2022-10-20T08:31:13;101210.22;;;11.18;100.00
66273;BME280;58450;52.150;4.466;2022-10-20T08:33:41;101206.44;;;11.28;100.00
66273;BME280;58450;52.150;4.466;2022-10-20T08:36:11;101193.63;;;11.30;100.00
66273;BME280;58450;52.150;4.466;2022-10-20T08:38:41;101192.91;;;11.36;100.00
66273;BME280;58450;52.150;4.466;2022-10-20T08:41:14;101178.69;;;11.42;100.00
66273;BME280;58450;52.150;4.466;2022-10-20T08:43:46;101185.75;;;11.43;100.00
66273;BME280;58450;52.150;4.466;2022-10-20T08:46:17;101169.66;;;11.50;100.00
66273;BME280;58450;52.150;4.466;2022-10-20T08:48:46;101161.97;;;11.47;100.00
66273;BME280;58450;52.150;4.466;2022-10-20T08:51:18;101162.81;;;11.47;100.00
66273;BME280;58450;52.150;4.466;2022-10-20T08:53:50;101161.69;;;11.57;100.00
66273;BME280;58450;52.150;4.466;2022-10-20T08:56:25;101166.72;;;11.60;100.00
66273;BME280;58450;52.150;4.466;2022-10-20T08:58:55;101163.06;;;11.67;100.00
66273;BME280;58450;52.150;4.466;2022-10-20T09:01:25;101157.69;;;11.67;100.00
66273;BME280;58450;52.150;4.466;2022-10-20T09:03:55;101167.06;;;11.72;100.00
66273;BME280;58450;52.150;4.466;2022-10-20T09:06:26;101164.22;;;11.73;100.00
66273;BME280;58450;52.150;4.466;2022-10-20T09:08:54;101166.16;;;11.79;100.00
66273;BME280;58450;52.150;4.466;2022-10-20T09:11:26;101157.22;;;11.79;100.00
66273;BME280;58450;52.150;4.466;2022-10-20T09:13:59;101160.28;;;11.76;100.00
66273;BME280;58450;52.150;4.466;2022-10-20T09:16:29;101157.41;;;11.77;100.00
66273;BME280;58450;52.150;4.466;2022-10-20T09:18:59;101144.59;;;11.79;100.00
66273;BME280;58450;52.150;4.466;2022-10-20T09:21:29;101142.53;;;11.81;100.00
66273;BME280;58450;52.150;4.466;2022-10-20T09:24:00;101137.16;;;11.81;100.00
66273;BME280;58450;52.150;4.466;2022-10-20T09:26:33;101145.50;;;11.87;100.00
66273;BME280;58450;52.150;4.466;2022-10-20T09:29:03;101135.38;;;11.89;100.00
66273;BME280;58450;52.150;4.466;2022-10-20T09:31:34;101131.66;;;11.90;100.00
66273;BME280;58450;52.150;4.466;2022-10-20T09:34:19;101129.41;;;11.93;100.00
66273;BME280;58450;52.150;4.466;2022-10-20T09:36:50;101108.84;;;11.92;100.00
66273;BME280;58450;52.150;4.466;2022-10-20T09:39:23;101109.66;;;11.93;100.00
66273;BME280;58450;52.150;4.466;2022-10-20T09:42:01;101108.47;;;11.95;100.00
66273;BME280;58450;52.150;4.466;2022-10-20T09:44:32;101112.75;;;12.05;100.00
66273;BME280;58450;52.150;4.466;2022-10-20T09:47:11;101104.94;;;12.10;100.00
66273;BME280;58450;52.150;4.466;2022-10-20T09:49:43;101107.38;;;12.05;100.00
66273;BME280;58450;52.150;4.466;2022-10-20T09:52:20;101110.31;;;12.10;100.00
66273;BME280;58450;52.150;4.466;2022-10-20T09:54:56;101124.63;;;12.10;100.00
66273;BME280;58450;52.150;4.466;2022-10-20T09:57:26;101126.00;;;12.21;100.00
66273;BME280;58450;52.150;4.466;2022-10-20T09:59:56;101121.97;;;12.32;100.00
66273;BME280;58450;52.150;4.466;2022-10-20T10:02:30;101128.59;;;12.30;100.00
66273;BME280;58450;52.150;4.466;2022-10-20T10:05:17;101107.31;;;12.41;100.00
66273;BME280;58450;52.150;4.466;2022-10-20T10:07:57;101084.94;;;12.48;100.00
66273;BME280;58450;52.150;4.466;2022-10-20T10:10:27;101079.34;;;12.49;100.00
66273;BME280;58450;52.150;4.466;2022-10-20T10:12:57;101080.75;;;12.45;100.00
66273;BME280;58450;52.150;4.466;2022-10-20T10:15:30;101093.34;;;12.60;100.00
66273;BME280;58450;52.150;4.466;2022-10-20T10:18:11;101100.03;;;12.64;100.00
66273;BME280;58450;52.150;4.466;2022-10-20T10:20:40;101095.47;;;12.64;100.00
66273;BME280;58450;52.150;4.466;2022-10-20T10:23:17;101095.34;;;12.73;100.00
66273;BME280;58450;52.150;4.466;2022-10-20T10:25:47;101082.66;;;12.73;100.00
66273;BME280;58450;52.150;4.466;2022-10-20T10:28:27;101073.53;;;12.74;100.00
66273;BME280;58450;52.150;4.466;2022-10-20T10:31:23;101066.09;;;12.83;100.00
66273;BME280;58450;52.150;4.466;2022-10-20T10:33:59;101047.66;;;12.86;100.00
66273;BME280;58450;52.150;4.466;2022-10-20T10:36:48;101026.28;;;12.92;100.00
66273;BME280;58450;52.150;4.466;2022-10-20T10:39:17;101019.25;;;12.97;100.00
66273;BME280;58450;52.150;4.466;2022-10-20T10:42:04;101032.19;;;13.02;100.00
66273;BME280;58450;52.150;4.466;2022-10-20T10:44:52;101052.53;;;13.05;100.00
66273;BME280;58450;52.150;4.466;2022-10-20T10:47:35;101051.50;;;13.06;100.00
66273;BME280;58450;52.150;4.466;2022-10-20T10:50:25;101042.03;;;13.17;100.00
66273;BME280;58450;52.150;4.466;2022-10-20T10:53:05;101035.59;;;13.18;100.00
66273;BME280;58450;52.150;4.466;2022-10-20T10:55:48;101035.41;;;13.26;100.00
66273;BME280;58450;52.150;4.466;2022-10-20T10:58:33;101031.47;;;13.22;100.00
66273;BME280;58450;52.150;4.466;2022-10-20T11:01:27;101018.59;;;13.24;100.00
66273;BME280;58450;52.150;4.466;2022-10-20T11:04:24;101017.72;;;13.23;100.00
66273;BME280;58450;52.150;4.466;2022-10-20T11:07:08;101013.59;;;13.27;100.00
66273;BME280;58450;52.150;4.466;2022-10-20T11:09:55;101024.63;;;13.33;100.00
66273;BME280;58450;52.150;4.466;2022-10-20T11:12:48;101032.44;;;13.49;100.00
66273;BME280;58450;52.150;4.466;2022-10-20T11:15:38;101039.78;;;13.69;100.00
66273;BME280;58450;52.150;4.466;2022-10-20T11:21:22;101044.22;;;13.97;100.00
66273;BME280;58450;52.150;4.466;2022-10-20T11:24:08;101051.97;;;14.07;100.00
66273;BME280;58450;52.150;4.466;2022-10-20T11:26:45;101031.13;;;14.07;100.00
66273;BME280;58450;52.150;4.466;2022-10-20T11:29:29;101030.31;;;14.13;100.00
66273;BME280;58450;52.150;4.466;2022-10-20T11:32:06;101029.91;;;14.16;100.00
66273;BME280;58450;52.150;4.466;2022-10-20T11:34:45;101032.59;;;14.16;100.00
66273;BME280;58450;52.150;4.466;2022-10-20T11:37:23;101041.34;;;14.18;100.00
66273;BME280;58450;52.150;4.466;2022-10-20T11:39:57;101045.72;;;14.13;100.00
66273;BME280;58450;52.150;4.466;2022-10-20T11:42:36;101042.56;;;14.16;100.00
66273;BME280;58450;52.150;4.466;2022-10-20T11:45:25;101058.00;;;14.15;100.00
66273;BME280;58450;52.150;4.466;2022-10-20T11:48:01;101056.56;;;14.13;100.00
66273;BME280;58450;52.150;4.466;2022-10-20T11:50:36;101059.44;;;14.04;100.00
66273;BME280;58450;52.150;4.466;2022-10-20T11:53:20;101056.72;;;13.98;100.00
66273;BME280;58450;52.150;4.466;2022-10-20T11:56:20;101056.72;;;13.98;100.00
66273;BME280;58450;52.150;4.466;2022-10-20T11:59:33;101049.44;;;13.98;100.00
66273;BME280;58450;52.150;4.466;2022-10-20T12:02:50;101050.47;;;14.04;100.00
66273;BME280;58450;52.150;4.466;2022-10-20T12:09:28;101041.34;;;14.25;100.00
66273;BME280;58450;52.150;4.466;2022-10-20T12:12:11;101033.03;;;14.47;100.00
66273;BME280;58450;52.150;4.466;2022-10-20T12:14:47;101031.75;;;14.63;100.00
66273;BME280;58450;52.150;4.466;2022-10-20T12:17:40;101028.88;;;14.71;100.00
66273;BME280;58450;52.150;4.466;2022-10-20T12:20:46;101017.81;;;14.80;100.00
66273;BME280;58450;52.150;4.466;2022-10-20T12:23:51;101016.78;;;14.81;100.00
66273;BME280;58450;52.150;4.466;2022-10-20T12:29:57;101012.63;;;14.78;100.00
66273;BME280;58450;52.150;4.466;2022-10-20T12:32:55;101000.72;;;14.66;100.00
66273;BME280;58450;52.150;4.466;2022-10-20T12:38:51;100998.19;;;14.91;100.00
66273;BME280;58450;52.150;4.466;2022-10-20T12:41:25;100989.03;;;14.99;100.00
66273;BME280;58450;52.150;4.466;2022-10-20T12:43:59;100991.25;;;15.15;100.00
66273;BME280;58450;52.150;4.466;2022-10-20T12:46:32;100985.28;;;15.45;100.00
66273;BME280;58450;52.150;4.466;2022-10-20T12:49:06;100989.81;;;15.58;100.00
66273;BME280;58450;52.150;4.466;2022-10-20T12:51:50;100987.69;;;15.67;100.00
66273;BME280;58450;52.150;4.466;2022-10-20T12:54:24;100977.34;;;15.89;100.00
66273;BME280;58450;52.150;4.466;2022-10-20T12:56:58;100982.75;;;15.89;100.00
66273;BME280;58450;52.150;4.466;2022-10-20T12:59:38;100981.50;;;15.85;100.00
66273;BME280;58450;52.150;4.466;2022-10-20T13:05:40;100981.41;;;15.66;100.00
66273;BME280;58450;52.150;4.466;2022-10-20T13:08:29;100967.47;;;15.63;100.00
66273;BME280;58450;52.150;4.466;2022-10-20T13:11:32;100968.91;;;15.65;100.00
66273;BME280;58450;52.150;4.466;2022-10-20T13:14:42;100960.81;;;15.59;100.00
66273;BME280;58450;52.150;4.466;2022-10-20T13:17:21;100961.00;;;15.57;100.00
66273;BME280;58450;52.150;4.466;2022-10-20T13:20:15;100968.34;;;15.50;100.00
66273;BME280;58450;52.150;4.466;2022-10-20T13:22:53;100968.34;;;15.50;100.00
66273;BME280;58450;52.150;4.466;2022-10-20T13:25:31;100958.34;;;15.50;100.00
66273;BME280;58450;52.150;4.466;2022-10-20T13:28:11;100950.25;;;15.44;100.00
66273;BME280;58450;52.150;4.466;2022-10-20T13:31:06;100955.06;;;15.74;100.00
66273;BME280;58450;52.150;4.466;2022-10-20T13:33:47;100950.44;;;16.13;100.00
66273;BME280;58450;52.150;4.466;2022-10-20T13:36:36;100950.59;;;16.44;100.00